sensor_id;sensor_type;location;lat;lon;timestamp;P1;durP1;ratioP1;P2;durP2;ratioP2
62121;SDS011;48108;47.532;19.084;2022-11-11T05:09:15;25.35;;;11.68;;
62121;SDS011;48108;47.532;19.084;2022-11-11T05:12:37;30.15;;;12.10;;
62121;SDS011;48108;47.532;19.084;2022-11-11T05:15:58;24.42;;;12.05;;
62121;SDS011;48108;47.532;19.084;2022-11-11T05:23:17;25.85;;;12.07;;
62121;SDS011;48108;47.532;19.084;2022-11-11T05:26:39;26.95;;;13.27;;
62121;SDS011;48108;47.532;19.084;2022-11-11T05:30:00;29.30;;;13.82;;
62121;SDS011;48108;47.532;19.084;2022-11-11T05:33:21;26.08;;;11.82;;
62121;SDS011;48108;47.532;19.084;2022-11-11T05:36:43;27.80;;;13.02;;
62121;SDS011;48108;47.532;19.084;2022-11-11T05:40:04;29.00;;;12.82;;
62121;SDS011;48108;47.532;19.084;2022-11-11T05:43:26;27.52;;;13.27;;
62121;SDS011;48108;47.532;19.084;2022-11-11T05:46:47;23.92;;;12.23;;
62121;SDS011;48108;47.532;19.084;2022-11-11T05:50:08;24.65;;;12.13;;
62121;SDS011;48108;47.532;19.084;2022-11-11T05:53:29;21.00;;;12.18;;
62121;SDS011;48108;47.532;19.084;2022-11-11T05:56:51;26.15;;;12.40;;
62121;SDS011;48108;47.532;19.084;2022-11-11T06:00:12;28.38;;;13.20;;
62121;SDS011;48108;47.532;19.084;2022-11-11T06:03:34;29.37;;;13.05;;
62121;SDS011;48108;47.532;19.084;2022-11-11T06:06:55;32.05;;;12.93;;
62121;SDS011;48108;47.532;19.084;2022-11-11T06:10:16;27.55;;;12.68;;
62121;SDS011;48108;47.532;19.084;2022-11-11T06:13:53;27.17;;;12.52;;
62121;SDS011;48108;47.532;19.084;2022-11-11T06:17:14;23.40;;;11.95;;
62121;SDS011;48108;47.532;19.084;2022-11-11T06:20:36;25.30;;;12.45;;
62121;SDS011;48108;47.532;19.084;2022-11-11T06:23:57;26.20;;;11.57;;
62121;SDS011;48108;47.532;19.084;2022-11-11T06:27:17;30.00;;;14.02;;
62121;SDS011;48108;47.532;19.084;2022-11-11T06:30:39;29.52;;;12.45;;
62121;SDS011;48108;47.532;19.084;2022-11-11T06:34:11;26.37;;;14.00;;
62121;SDS011;48108;47.532;19.084;2022-11-11T06:37:32;28.12;;;13.38;;
62121;SDS011;48108;47.532;19.084;2022-11-11T06:40:53;29.30;;;14.02;;
62121;SDS011;48108;47.532;19.084;2022-11-11T06:44:14;25.58;;;13.57;;
62121;SDS011;48108;47.532;19.084;2022-11-11T06:47:35;27.05;;;13.98;;
62121;SDS011;48108;47.532;19.084;2022-11-11T06:51:03;27.90;;;13.80;;
62121;SDS011;48108;47.532;19.084;2022-11-11T06:54:25;26.52;;;13.57;;
62121;SDS011;48108;47.532;19.084;2022-11-11T06:57:46;29.35;;;14.38;;
62121;SDS011;48108;47.532;19.084;2022-11-11T07:01:07;30.12;;;14.18;;
62121;SDS011;48108;47.532;19.084;2022-11-11T07:04:29;27.30;;;13.45;;
62121;SDS011;48108;47.532;19.084;2022-11-11T07:07:50;28.05;;;13.57;;
62121;SDS011;48108;47.532;19.084;2022-11-11T07:11:11;26.45;;;13.10;;
62121;SDS011;48108;47.532;19.084;2022-11-11T07:14:38;29.08;;;13.02;;
62121;SDS011;48108;47.532;19.084;2022-11-11T07:17:59;25.62;;;13.52;;
62121;SDS011;48108;47.532;19.084;2022-11-11T07:21:21;25.37;;;13.02;;
62121;SDS011;48108;47.532;19.084;2022-11-11T07:24:42;27.92;;;14.63;;
62121;SDS011;48108;47.532;19.084;2022-11-11T07:28:03;36.90;;;15.20;;
62121;SDS011;48108;47.532;19.084;2022-11-11T07:31:24;28.75;;;13.25;;
62121;SDS011;48108;47.532;19.084;2022-11-11T07:34:45;22.92;;;13.25;;
62121;SDS011;48108;47.532;19.084;2022-11-11T07:38:06;25.92;;;13.43;;
62121;SDS011;48108;47.532;19.084;2022-11-11T07:41:28;28.42;;;13.27;;
62121;SDS011;48108;47.532;19.084;2022-11-11T07:44:49;25.12;;;12.52;;
62121;SDS011;48108;47.532;19.084;2022-11-11T07:48:09;24.98;;;13.43;;
62121;SDS011;48108;47.532;19.084;2022-11-11T07:51:30;30.58;;;15.73;;
62121;SDS011;48108;47.532;19.084;2022-11-11T07:54:52;36.35;;;16.48;;
62121;SDS011;48108;47.532;19.084;2022-11-11T07:58:13;32.45;;;16.00;;
62121;SDS011;48108;47.532;19.084;2022-11-11T08:01:34;28.23;;;15.93;;
62121;SDS011;48108;47.532;19.084;2022-11-11T08:04:55;33.20;;;15.35;;
62121;SDS011;48108;47.532;19.084;2022-11-11T08:08:16;29.75;;;14.87;;
62121;SDS011;48108;47.532;19.084;2022-11-11T08:11:37;31.80;;;15.88;;
62121;SDS011;48108;47.532;19.084;2022-11-11T08:15:24;31.48;;;15.45;;
62121;SDS011;48108;47.532;19.084;2022-11-11T08:18:45;27.87;;;14.87;;
62121;SDS011;48108;47.532;19.084;2022-11-11T08:22:06;29.55;;;15.55;;
62121;SDS011;48108;47.532;19.084;2022-11-11T08:25:27;28.35;;;14.45;;
62121;SDS011;48108;47.532;19.084;2022-11-11T08:28:50;27.83;;;15.15;;
62121;SDS011;48108;47.532;19.084;2022-11-11T08:32:12;25.27;;;14.82;;
62121;SDS011;48108;47.532;19.084;2022-11-11T08:35:33;26.48;;;14.87;;
62121;SDS011;48108;47.532;19.084;2022-11-11T08:38:54;27.35;;;14.75;;
62121;SDS011;48108;47.532;19.084;2022-11-11T08:42:16;26.23;;;14.57;;
62121;SDS011;48108;47.532;19.084;2022-11-11T08:45:37;26.23;;;14.55;;
62121;SDS011;48108;47.532;19.084;2022-11-11T08:48:58;27.30;;;14.45;;
62121;SDS011;48108;47.532;19.084;2022-11-11T08:52:19;27.37;;;14.15;;
62121;SDS011;48108;47.532;19.084;2022-11-11T08:55:40;32.67;;;14.85;;
62121;SDS011;48108;47.532;19.084;2022-11-11T08:59:01;25.92;;;13.75;;
62121;SDS011;48108;47.532;19.084;2022-11-11T09:02:22;24.23;;;13.80;;
62121;SDS011;48108;47.532;19.084;2022-11-11T09:05:43;28.02;;;14.02;;
62121;SDS011;48108;47.532;19.084;2022-11-11T09:09:07;26.50;;;13.15;;
62121;SDS011;48108;47.532;19.084;2022-11-11T09:12:28;24.83;;;14.57;;
62121;SDS011;48108;47.532;19.084;2022-11-11T09:15:49;25.90;;;14.23;;
62121;SDS011;48108;47.532;19.084;2022-11-11T09:19:13;25.42;;;14.23;;
62121;SDS011;48108;47.532;19.084;2022-11-11T09:22:40;23.95;;;13.73;;
62121;SDS011;48108;47.532;19.084;2022-11-11T09:26:05;28.02;;;13.82;;
62121;SDS011;48108;47.532;19.084;2022-11-11T09:29:26;27.83;;;13.68;;
62121;SDS011;48108;47.532;19.084;2022-11-11T09:32:47;26.27;;;14.18;;
62121;SDS011;48108;47.532;19.084;2022-11-11T09:36:08;30.00;;;13.85;;
62121;SDS011;48108;47.532;19.084;2022-11-11T09:39:29;25.70;;;13.88;;
62121;SDS011;48108;47.532;19.084;2022-11-11T09:42:59;26.58;;;14.38;;
62121;SDS011;48108;47.532;19.084;2022-11-11T09:46:31;26.60;;;15.15;;
62121;SDS011;48108;47.532;19.084;2022-11-11T09:50:01;25.45;;;13.98;;
62121;SDS011;48108;47.532;19.084;2022-11-11T09:53:35;29.20;;;16.15;;
62121;SDS011;48108;47.532;19.084;2022-11-11T09:57:03;32.65;;;14.93;;
62121;SDS011;48108;47.532;19.084;2022-11-11T10:00:34;30.42;;;14.45;;
62121;SDS011;48108;47.532;19.084;2022-11-11T10:03:59;30.42;;;15.07;;
62121;SDS011;48108;47.532;19.084;2022-11-11T10:14:59;26.95;;;16.65;;
62121;SDS011;48108;47.532;19.084;2022-11-11T10:22:04;27.77;;;16.62;;
62121;SDS011;48108;47.532;19.084;2022-11-11T10:25:40;29.65;;;16.40;;
62121;SDS011;48108;47.532;19.084;2022-11-11T10:29:20;30.20;;;16.25;;
62121;SDS011;48108;47.532;19.084;2022-11-11T10:32:42;27.40;;;15.95;;
62121;SDS011;48108;47.532;19.084;2022-11-11T10:36:08;26.73;;;16.05;;
62121;SDS011;48108;47.532;19.084;2022-11-11T10:43:26;23.15;;;13.52;;
62121;SDS011;48108;47.532;19.084;2022-11-11T10:47:00;26.10;;;14.40;;
62121;SDS011;48108;47.532;19.084;2022-11-11T10:50:34;23.67;;;14.35;;
62121;SDS011;48108;47.532;19.084;2022-11-11T10:54:00;22.55;;;13.68;;
62121;SDS011;48108;47.532;19.084;2022-11-11T11:01:06;21.30;;;12.10;;
62121;SDS011;48108;47.532;19.084;2022-11-11T11:04:40;20.60;;;12.13;;
62121;SDS011;48108;47.532;19.084;2022-11-11T11:08:07;28.08;;;16.15;;
62121;SDS011;48108;47.532;19.084;2022-11-11T11:11:35;29.23;;;15.95;;
62121;SDS011;48108;47.532;19.084;2022-11-11T11:15:07;26.48;;;15.38;;
62121;SDS011;48108;47.532;19.084;2022-11-11T11:18:32;27.05;;;14.73;;
62121;SDS011;48108;47.532;19.084;2022-11-11T11:22:01;26.77;;;14.93;;
62121;SDS011;48108;47.532;19.084;2022-11-11T11:25:23;21.75;;;12.60;;
62121;SDS011;48108;47.532;19.084;2022-11-11T11:28:58;22.05;;;12.37;;
62121;SDS011;48108;47.532;19.084;2022-11-11T11:35:50;14.70;;;8.65;;
62121;SDS011;48108;47.532;19.084;2022-11-11T11:39:11;13.02;;;8.02;;
62121;SDS011;48108;47.532;19.084;2022-11-11T11:42:33;13.27;;;6.55;;
62121;SDS011;48108;47.532;19.084;2022-11-11T11:45:56;8.25;;;5.15;;
62121;SDS011;48108;47.532;19.084;2022-11-11T11:53:18;9.73;;;4.62;;
62121;SDS011;48108;47.532;19.084;2022-11-11T11:56:41;7.85;;;4.15;;
62121;SDS011;48108;47.532;19.084;2022-11-11T12:00:15;13.23;;;5.10;;
62121;SDS011;48108;47.532;19.084;2022-11-11T12:03:49;9.48;;;5.03;;
62121;SDS011;48108;47.532;19.084;2022-11-11T12:11:16;9.45;;;4.82;;
62121;SDS011;48108;47.532;19.084;2022-11-11T12:14:51;9.30;;;5.25;;
62121;SDS011;48108;47.532;19.084;2022-11-11T12:18:34;10.98;;;5.20;;
62121;SDS011;48108;47.532;19.084;2022-11-11T12:33:01;7.95;;;4.78;;
62121;SDS011;48108;47.532;19.084;2022-11-11T12:36:35;6.57;;;3.83;;
62121;SDS011;48108;47.532;19.084;2022-11-11T12:44:11;11.80;;;4.53;;
62121;SDS011;48108;47.532;19.084;2022-11-11T12:47:40;8.73;;;4.20;;
62121;SDS011;48108;47.532;19.084;2022-11-11T12:58:32;10.60;;;4.85;;
62121;SDS011;48108;47.532;19.084;2022-11-11T13:09:45;8.93;;;4.78;;
62121;SDS011;48108;47.532;19.084;2022-11-11T13:17:16;9.57;;;4.37;;
62121;SDS011;48108;47.532;19.084;2022-11-11T13:20:40;10.48;;;3.92;;
62121;SDS011;48108;47.532;19.084;2022-11-11T13:24:08;9.02;;;3.70;;
62121;SDS011;48108;47.532;19.084;2022-11-11T13:34:55;10.75;;;5.07;;
62121;SDS011;48108;47.532;19.084;2022-11-11T13:38:50;12.13;;;5.47;;
62121;SDS011;48108;47.532;19.084;2022-11-11T13:42:19;6.40;;;5.00;;
62121;SDS011;48108;47.532;19.084;2022-11-11T13:45:49;11.32;;;5.65;;
62121;SDS011;48108;47.532;19.084;2022-11-11T13:49:26;13.95;;;6.87;;
62121;SDS011;48108;47.532;19.084;2022-11-11T13:52:59;13.90;;;6.53;;
62121;SDS011;48108;47.532;19.084;2022-11-11T14:07:06;13.25;;;7.00;;
62121;SDS011;48108;47.532;19.084;2022-11-11T14:13:48;12.90;;;6.97;;
62121;SDS011;48108;47.532;19.084;2022-11-11T14:17:12;12.15;;;6.90;;
62121;SDS011;48108;47.532;19.084;2022-11-11T14:24:00;11.57;;;6.82;;
62121;SDS011;48108;47.532;19.084;2022-11-11T14:27:31;13.85;;;6.80;;
62121;SDS011;48108;47.532;19.084;2022-11-11T14:30:53;15.43;;;7.20;;
62121;SDS011;48108;47.532;19.084;2022-11-11T14:34:22;11.95;;;6.62;;
62121;SDS011;48108;47.532;19.084;2022-11-11T14:41:40;14.45;;;6.43;;
62121;SDS011;48108;47.532;19.084;2022-11-11T14:45:04;13.60;;;6.28;;
62121;SDS011;48108;47.532;19.084;2022-11-11T14:48:50;15.95;;;7.07;;
62121;SDS011;48108;47.532;19.084;2022-11-11T14:52:20;11.68;;;6.72;;
62121;SDS011;48108;47.532;19.084;2022-11-11T14:55:51;15.70;;;7.15;;
62121;SDS011;48108;47.532;19.084;2022-11-11T14:59:13;14.00;;;7.43;;
62121;SDS011;48108;47.532;19.084;2022-11-11T15:02:41;14.68;;;7.72;;
62121;SDS011;48108;47.532;19.084;2022-11-11T15:06:14;18.10;;;9.27;;
62121;SDS011;48108;47.532;19.084;2022-11-11T15:09:49;16.73;;;9.20;;
62121;SDS011;48108;47.532;19.084;2022-11-11T15:20:30;20.65;;;9.98;;
62121;SDS011;48108;47.532;19.084;2022-11-11T15:24:21;19.80;;;9.73;;
62121;SDS011;48108;47.532;19.084;2022-11-11T15:39:36;19.08;;;9.68;;
62121;SDS011;48108;47.532;19.084;2022-11-11T15:43:00;19.85;;;10.05;;
62121;SDS011;48108;47.532;19.084;2022-11-11T15:46:24;17.98;;;9.73;;
62121;SDS011;48108;47.532;19.084;2022-11-11T15:49:48;19.48;;;11.40;;
62121;SDS011;48108;47.532;19.084;2022-11-11T15:53:13;20.25;;;11.45;;
62121;SDS011;48108;47.532;19.084;2022-11-11T15:56:41;18.10;;;10.55;;
62121;SDS011;48108;47.532;19.084;2022-11-11T16:00:18;18.40;;;10.93;;
62121;SDS011;48108;47.532;19.084;2022-11-11T16:03:45;18.42;;;9.50;;
62121;SDS011;48108;47.532;19.084;2022-11-11T16:07:15;20.70;;;11.05;;
62121;SDS011;48108;47.532;19.084;2022-11-11T16:10:37;18.85;;;11.15;;
62121;SDS011;48108;47.532;19.084;2022-11-11T16:14:02;22.62;;;11.10;;
62121;SDS011;48108;47.532;19.084;2022-11-11T16:17:29;20.02;;;10.73;;
62121;SDS011;48108;47.532;19.084;2022-11-11T16:21:08;22.10;;;11.35;;
62121;SDS011;48108;47.532;19.084;2022-11-11T16:24:31;19.75;;;11.07;;
62121;SDS011;48108;47.532;19.084;2022-11-11T16:27:54;21.27;;;11.23;;
62121;SDS011;48108;47.532;19.084;2022-11-11T16:35:21;18.87;;;10.60;;
62121;SDS011;48108;47.532;19.084;2022-11-11T16:38:44;22.02;;;11.57;;
62121;SDS011;48108;47.532;19.084;2022-11-11T16:49:36;21.40;;;11.02;;
62121;SDS011;48108;47.532;19.084;2022-11-11T16:53:02;19.92;;;10.60;;
62121;SDS011;48108;47.532;19.084;2022-11-11T16:56:25;22.13;;;12.68;;
